sensor_id;sensor_type;location;lat;lon;timestamp;temperature;humidity
20911;DHT22;10615;42.702;23.314;2023-05-10T00:00:15;10.10;99.90
20911;DHT22;10615;42.702;23.314;2023-05-10T00:01:16;10.00;99.90
20911;DHT22;10615;42.702;23.314;2023-05-10T00:02:17;10.00;99.90
20911;DHT22;10615;42.702;23.314;2023-05-10T00:03:17;10.00;99.90
20911;DHT22;10615;42.702;23.314;2023-05-10T00:04:18;10.00;99.90
20911;DHT22;10615;42.702;23.314;2023-05-10T00:05:19;10.00;99.90
20911;DHT22;10615;42.702;23.314;2023-05-10T00:06:19;10.00;99.90
20911;DHT22;10615;42.702;23.314;2023-05-10T00:07:20;10.00;99.90
20911;DHT22;10615;42.702;23.314;2023-05-10T00:08:21;10.00;99.90
20911;DHT22;10615;42.702;23.314;2023-05-10T00:09:22;10.00;99.90
20911;DHT22;10615;42.702;23.314;2023-05-10T00:10:22;10.00;99.90
20911;DHT22;10615;42.702;23.314;2023-05-10T00:11:23;10.00;99.90
20911;DHT22;10615;42.702;23.314;2023-05-10T00:12:24;10.00;99.90
20911;DHT22;10615;42.702;23.314;2023-05-10T00:13:25;10.00;99.90
20911;DHT22;10615;42.702;23.314;2023-05-10T00:14:25;10.00;99.90
20911;DHT22;10615;42.702;23.314;2023-05-10T00:15:26;10.00;99.90
20911;DHT22;10615;42.702;23.314;2023-05-10T00:16:27;10.00;99.90
20911;DHT22;10615;42.702;23.314;2023-05-10T00:17:27;9.90;99.90
20911;DHT22;10615;42.702;23.314;2023-05-10T00:18:28;9.90;99.90
20911;DHT22;10615;42.702;23.314;2023-05-10T00:19:28;9.90;99.90
20911;DHT22;10615;42.702;23.314;2023-05-10T00:20:29;9.90;99.90
20911;DHT22;10615;42.702;23.314;2023-05-10T00:21:30;9.90;99.90
20911;DHT22;10615;42.702;23.314;2023-05-10T00:22:31;9.90;99.90
20911;DHT22;10615;42.702;23.314;2023-05-10T00:23:32;9.90;99.90
20911;DHT22;10615;42.702;23.314;2023-05-10T00:24:32;9.90;99.90
20911;DHT22;10615;42.702;23.314;2023-05-10T00:25:33;9.90;99.90
20911;DHT22;10615;42.702;23.314;2023-05-10T00:26:33;9.80;99.90
20911;DHT22;10615;42.702;23.314;2023-05-10T00:27:35;9.80;99.90
20911;DHT22;10615;42.702;23.314;2023-05-10T00:28:35;9.80;99.90
20911;DHT22;10615;42.702;23.314;2023-05-10T00:29:36;9.80;99.90
20911;DHT22;10615;42.702;23.314;2023-05-10T00:30:36;9.80;99.90
20911;DHT22;10615;42.702;23.314;2023-05-10T00:31:37;9.80;99.90
20911;DHT22;10615;42.702;23.314;2023-05-10T00:32:38;9.80;99.90
20911;DHT22;10615;42.702;23.314;2023-05-10T00:33:38;9.80;99.90
20911;DHT22;10615;42.702;23.314;2023-05-10T00:34:39;9.70;99.90
20911;DHT22;10615;42.702;23.314;2023-05-10T00:35:40;9.70;99.90
20911;DHT22;10615;42.702;23.314;2023-05-10T00:36:41;9.70;99.90
20911;DHT22;10615;42.702;23.314;2023-05-10T00:37:42;9.70;99.90
20911;DHT22;10615;42.702;23.314;2023-05-10T00:38:42;9.70;99.90
20911;DHT22;10615;42.702;23.314;2023-05-10T00:39:43;9.70;99.90
20911;DHT22;10615;42.702;23.314;2023-05-10T00:40:44;9.70;99.90
20911;DHT22;10615;42.702;23.314;2023-05-10T00:41:44;9.70;99.90
20911;DHT22;10615;42.702;23.314;2023-05-10T00:42:45;9.70;99.90
20911;DHT22;10615;42.702;23.314;2023-05-10T00:43:46;9.60;99.90
20911;DHT22;10615;42.702;23.314;2023-05-10T00:44:46;9.60;99.90
20911;DHT22;10615;42.702;23.314;2023-05-10T00:45:47;9.60;99.90
20911;DHT22;10615;42.702;23.314;2023-05-10T00:46:49;9.60;99.90
20911;DHT22;10615;42.702;23.314;2023-05-10T00:47:50;9.60;99.90
20911;DHT22;10615;42.702;23.314;2023-05-10T00:48:52;9.60;99.90
20911;DHT22;10615;42.702;23.314;2023-05-10T00:49:53;9.60;99.90
20911;DHT22;10615;42.702;23.314;2023-05-10T00:50:54;9.60;99.90
20911;DHT22;10615;42.702;23.314;2023-05-10T00:51:55;9.60;99.90
20911;DHT22;10615;42.702;23.314;2023-05-10T00:52:56;9.50;99.90
20911;DHT22;10615;42.702;23.314;2023-05-10T00:53:58;9.50;99.90
20911;DHT22;10615;42.702;23.314;2023-05-10T00:55:00;9.50;99.90
20911;DHT22;10615;42.702;23.314;2023-05-10T00:56:01;9.50;99.90
20911;DHT22;10615;42.702;23.314;2023-05-10T00:57:03;9.50;99.90
20911;DHT22;10615;42.702;23.314;2023-05-10T00:58:04;9.50;99.90
20911;DHT22;10615;42.702;23.314;2023-05-10T00:59:05;9.50;99.90
20911;DHT22;10615;42.702;23.314;2023-05-10T01:00:06;9.50;99.90
20911;DHT22;10615;42.702;23.314;2023-05-10T01:01:08;9.50;99.90
20911;DHT22;10615;42.702;23.314;2023-05-10T01:02:09;9.50;99.90
20911;DHT22;10615;42.702;23.314;2023-05-10T01:03:11;9.50;99.90
20911;DHT22;10615;42.702;23.314;2023-05-10T01:04:12;9.50;99.90
20911;DHT22;10615;42.702;23.314;2023-05-10T01:05:14;9.50;99.90
20911;DHT22;10615;42.702;23.314;2023-05-10T01:06:15;9.60;99.90
20911;DHT22;10615;42.702;23.314;2023-05-10T01:07:15;9.50;99.90
20911;DHT22;10615;42.702;23.314;2023-05-10T01:08:17;9.50;99.90
20911;DHT22;10615;42.702;23.314;2023-05-10T01:09:19;9.50;99.90
20911;DHT22;10615;42.702;23.314;2023-05-10T01:10:20;9.60;99.90
20911;DHT22;10615;42.702;23.314;2023-05-10T01:11:20;9.50;99.90
20911;DHT22;10615;42.702;23.314;2023-05-10T01:12:22;9.50;99.90
20911;DHT22;10615;42.702;23.314;2023-05-10T01:13:36;9.50;99.90
20911;DHT22;10615;42.702;23.314;2023-05-10T01:14:37;9.50;99.90
20911;DHT22;10615;42.702;23.314;2023-05-10T01:15:39;9.50;99.90
20911;DHT22;10615;42.702;23.314;2023-05-10T01:16:41;9.60;99.90
20911;DHT22;10615;42.702;23.314;2023-05-10T01:17:43;9.60;99.90
20911;DHT22;10615;42.702;23.314;2023-05-10T01:18:45;9.60;99.90
20911;DHT22;10615;42.702;23.314;2023-05-10T01:19:46;9.60;99.90
20911;DHT22;10615;42.702;23.314;2023-05-10T01:20:50;9.60;99.90
20911;DHT22;10615;42.702;23.314;2023-05-10T01:25:14;9.60;99.90
20911;DHT22;10615;42.702;23.314;2023-05-10T01:32:20;9.50;99.90
20911;DHT22;10615;42.702;23.314;2023-05-10T01:34:19;9.50;99.90
20911;DHT22;10615;42.702;23.314;2023-05-10T01:35:40;9.50;99.90
20911;DHT22;10615;42.702;23.314;2023-05-10T01:36:57;9.50;99.90
20911;DHT22;10615;42.702;23.314;2023-05-10T01:38:19;9.50;99.90
20911;DHT22;10615;42.702;23.314;2023-05-10T01:39:32;9.50;99.90
20911;DHT22;10615;42.702;23.314;2023-05-10T01:42:10;9.50;99.90
20911;DHT22;10615;42.702;23.314;2023-05-10T01:43:28;9.50;99.90
20911;DHT22;10615;42.702;23.314;2023-05-10T01:44:39;9.50;99.90
20911;DHT22;10615;42.702;23.314;2023-05-10T01:47:29;9.40;99.90
20911;DHT22;10615;42.702;23.314;2023-05-10T01:48:32;9.40;99.90
20911;DHT22;10615;42.702;23.314;2023-05-10T01:49:41;9.40;99.90
20911;DHT22;10615;42.702;23.314;2023-05-10T01:50:45;9.40;99.90
20911;DHT22;10615;42.702;23.314;2023-05-10T01:51:51;9.40;99.90
20911;DHT22;10615;42.702;23.314;2023-05-10T01:52:57;9.40;99.90
20911;DHT22;10615;42.702;23.314;2023-05-10T01:54:01;9.40;99.90
20911;DHT22;10615;42.702;23.314;2023-05-10T01:55:05;9.40;99.90
20911;DHT22;10615;42.702;23.314;2023-05-10T01:56:07;9.40;99.90
20911;DHT22;10615;42.702;23.314;2023-05-10T01:57:09;9.40;99.90
20911;DHT22;10615;42.702;23.314;2023-05-10T01:58:26;9.40;99.90
20911;DHT22;10615;42.702;23.314;2023-05-10T01:59:30;9.40;99.90
20911;DHT22;10615;42.702;23.314;2023-05-10T02:00:33;9.40;99.90
20911;DHT22;10615;42.702;23.314;2023-05-10T02:01:36;9.40;99.90
20911;DHT22;10615;42.702;23.314;2023-05-10T02:02:40;9.30;99.90
20911;DHT22;10615;42.702;23.314;2023-05-10T02:03:43;9.30;99.90
20911;DHT22;10615;42.702;23.314;2023-05-10T02:04:45;9.30;99.90
20911;DHT22;10615;42.702;23.314;2023-05-10T02:05:48;9.30;99.90
20911;DHT22;10615;42.702;23.314;2023-05-10T02:06:50;9.30;99.90
20911;DHT22;10615;42.702;23.314;2023-05-10T02:07:52;9.30;99.90
20911;DHT22;10615;42.702;23.314;2023-05-10T02:08:53;9.30;99.90
20911;DHT22;10615;42.702;23.314;2023-05-10T02:09:55;9.30;99.90
20911;DHT22;10615;42.702;23.314;2023-05-10T02:10:57;9.30;99.90
20911;DHT22;10615;42.702;23.314;2023-05-10T02:12:00;9.30;99.90
20911;DHT22;10615;42.702;23.314;2023-05-10T02:13:03;9.30;99.90
20911;DHT22;10615;42.702;23.314;2023-05-10T02:14:06;9.30;99.90
20911;DHT22;10615;42.702;23.314;2023-05-10T02:15:09;9.30;99.90
20911;DHT22;10615;42.702;23.314;2023-05-10T02:16:12;9.30;99.90
20911;DHT22;10615;42.702;23.314;2023-05-10T02:17:14;9.30;99.90
20911;DHT22;10615;42.702;23.314;2023-05-10T02:18:15;9.30;99.90
20911;DHT22;10615;42.702;23.314;2023-05-10T02:19:18;9.30;99.90
20911;DHT22;10615;42.702;23.314;2023-05-10T02:20:20;9.30;99.90
20911;DHT22;10615;42.702;23.314;2023-05-10T02:21:22;9.40;99.90
20911;DHT22;10615;42.702;23.314;2023-05-10T02:22:26;9.40;99.90
20911;DHT22;10615;42.702;23.314;2023-05-10T02:23:28;9.40;99.90
20911;DHT22;10615;42.702;23.314;2023-05-10T02:24:30;9.40;99.90
20911;DHT22;10615;42.702;23.314;2023-05-10T02:25:32;9.40;99.90
20911;DHT22;10615;42.702;23.314;2023-05-10T02:26:34;9.40;99.90
20911;DHT22;10615;42.702;23.314;2023-05-10T02:27:36;9.40;99.90
20911;DHT22;10615;42.702;23.314;2023-05-10T02:28:37;9.40;99.90
20911;DHT22;10615;42.702;23.314;2023-05-10T02:29:39;9.40;99.90
20911;DHT22;10615;42.702;23.314;2023-05-10T02:30:40;9.40;99.90
20911;DHT22;10615;42.702;23.314;2023-05-10T02:31:41;9.30;99.90
20911;DHT22;10615;42.702;23.314;2023-05-10T02:32:44;9.30;99.90
20911;DHT22;10615;42.702;23.314;2023-05-10T02:33:46;9.30;99.90
20911;DHT22;10615;42.702;23.314;2023-05-10T02:34:48;9.30;99.90
20911;DHT22;10615;42.702;23.314;2023-05-10T02:35:52;9.20;99.90
20911;DHT22;10615;42.702;23.314;2023-05-10T02:36:55;9.20;99.90
20911;DHT22;10615;42.702;23.314;2023-05-10T02:37:58;9.10;99.90
20911;DHT22;10615;42.702;23.314;2023-05-10T02:38:59;9.10;99.90
20911;DHT22;10615;42.702;23.314;2023-05-10T02:40:02;9.10;99.90
20911;DHT22;10615;42.702;23.314;2023-05-10T02:41:04;9.00;99.90
20911;DHT22;10615;42.702;23.314;2023-05-10T02:42:06;9.00;99.90
20911;DHT22;10615;42.702;23.314;2023-05-10T02:43:11;9.00;99.90
20911;DHT22;10615;42.702;23.314;2023-05-10T02:44:15;9.00;99.90
20911;DHT22;10615;42.702;23.314;2023-05-10T02:45:20;8.90;99.90
20911;DHT22;10615;42.702;23.314;2023-05-10T02:46:22;8.90;99.90
20911;DHT22;10615;42.702;23.314;2023-05-10T02:47:23;8.90;99.90
20911;DHT22;10615;42.702;23.314;2023-05-10T02:48:24;8.90;99.90
20911;DHT22;10615;42.702;23.314;2023-05-10T02:49:25;8.80;99.90
20911;DHT22;10615;42.702;23.314;2023-05-10T02:50:30;8.80;99.90
20911;DHT22;10615;42.702;23.314;2023-05-10T02:51:35;8.80;99.90
20911;DHT22;10615;42.702;23.314;2023-05-10T02:52:40;8.80;99.90
20911;DHT22;10615;42.702;23.314;2023-05-10T02:53:44;8.80;99.90
20911;DHT22;10615;42.702;23.314;2023-05-10T02:54:49;8.70;99.90
20911;DHT22;10615;42.702;23.314;2023-05-10T02:55:52;8.70;99.90
20911;DHT22;10615;42.702;23.314;2023-05-10T02:56:57;8.70;99.90
20911;DHT22;10615;42.702;23.314;2023-05-10T02:58:01;8.70;99.90
20911;DHT22;10615;42.702;23.314;2023-05-10T02:59:02;8.70;99.90
20911;DHT22;10615;42.702;23.314;2023-05-10T03:00:03;8.60;99.90
20911;DHT22;10615;42.702;23.314;2023-05-10T03:01:04;8.70;99.90
20911;DHT22;10615;42.702;23.314;2023-05-10T03:02:04;8.60;99.90
20911;DHT22;10615;42.702;23.314;2023-05-10T03:03:05;8.60;99.90
20911;DHT22;10615;42.702;23.314;2023-05-10T03:04:07;8.60;99.90
20911;DHT22;10615;42.702;23.314;2023-05-10T03:05:08;8.60;99.90
20911;DHT22;10615;42.702;23.314;2023-05-10T03:06:08;8.60;99.90
20911;DHT22;10615;42.702;23.314;2023-05-10T03:07:10;8.70;99.90
20911;DHT22;10615;42.702;23.314;2023-05-10T03:08:11;8.60;99.90
20911;DHT22;10615;42.702;23.314;2023-05-10T03:09:12;8.70;99.90
20911;DHT22;10615;42.702;23.314;2023-05-10T03:10:15;8.70;99.90
20911;DHT22;10615;42.702;23.314;2023-05-10T03:13:56;8.60;99.90
20911;DHT22;10615;42.702;23.314;2023-05-10T03:15:18;8.60;99.90
20911;DHT22;10615;42.702;23.314;2023-05-10T03:16:27;8.50;99.90
20911;DHT22;10615;42.702;23.314;2023-05-10T03:17:36;8.50;99.90
20911;DHT22;10615;42.702;23.314;2023-05-10T03:18:58;8.50;99.90
20911;DHT22;10615;42.702;23.314;2023-05-10T03:20:09;8.50;99.90
20911;DHT22;10615;42.702;23.314;2023-05-10T03:21:13;8.50;99.90
20911;DHT22;10615;42.702;23.314;2023-05-10T03:23:05;8.50;99.90
20911;DHT22;10615;42.702;23.314;2023-05-10T03:23:58;8.50;99.90
20911;DHT22;10615;42.702;23.314;2023-05-10T03:25:04;8.50;99.90
20911;DHT22;10615;42.702;23.314;2023-05-10T03:26:07;8.60;99.90
20911;DHT22;10615;42.702;23.314;2023-05-10T03:27:08;8.60;99.90
20911;DHT22;10615;42.702;23.314;2023-05-10T03:28:10;8.60;99.90
20911;DHT22;10615;42.702;23.314;2023-05-10T03:29:13;8.60;99.90
20911;DHT22;10615;42.702;23.314;2023-05-10T03:30:15;8.60;99.90
20911;DHT22;10615;42.702;23.314;2023-05-10T03:31:17;8.60;99.90
20911;DHT22;10615;42.702;23.314;2023-05-10T03:32:18;8.60;99.90
20911;DHT22;10615;42.702;23.314;2023-05-10T03:33:19;8.60;99.90
20911;DHT22;10615;42.702;23.314;2023-05-10T03:34:24;8.60;99.90
20911;DHT22;10615;42.702;23.314;2023-05-10T03:35:25;8.50;99.90
20911;DHT22;10615;42.702;23.314;2023-05-10T03:36:26;8.50;99.90
20911;DHT22;10615;42.702;23.314;2023-05-10T03:37:26;8.60;99.90
20911;DHT22;10615;42.702;23.314;2023-05-10T03:38:27;8.60;99.90
20911;DHT22;10615;42.702;23.314;2023-05-10T03:39:28;8.50;99.90
20911;DHT22;10615;42.702;23.314;2023-05-10T03:40:28;8.60;99.90
20911;DHT22;10615;42.702;23.314;2023-05-10T03:41:31;8.60;99.90
20911;DHT22;10615;42.702;23.314;2023-05-10T03:42:32;8.60;99.90
20911;DHT22;10615;42.702;23.314;2023-05-10T03:43:33;8.60;99.90
20911;DHT22;10615;42.702;23.314;2023-05-10T03:44:33;8.60;99.90
20911;DHT22;10615;42.702;23.314;2023-05-10T03:45:34;8.60;99.90
20911;DHT22;10615;42.702;23.314;2023-05-10T03:46:35;8.50;99.90
20911;DHT22;10615;42.702;23.314;2023-05-10T03:47:35;8.50;99.90
20911;DHT22;10615;42.702;23.314;2023-05-10T03:48:36;8.50;99.90
20911;DHT22;10615;42.702;23.314;2023-05-10T03:49:37;8.50;99.90
20911;DHT22;10615;42.702;23.314;2023-05-10T03:50:37;8.50;99.90
20911;DHT22;10615;42.702;23.314;2023-05-10T03:51:38;8.50;99.90
20911;DHT22;10615;42.702;23.314;2023-05-10T03:52:38;8.50;99.90
20911;DHT22;10615;42.702;23.314;2023-05-10T03:53:39;8.50;99.90
20911;DHT22;10615;42.702;23.314;2023-05-10T03:54:40;8.50;99.90
20911;DHT22;10615;42.702;23.314;2023-05-10T03:55:41;8.50;99.90
20911;DHT22;10615;42.702;23.314;2023-05-10T03:56:41;8.50;99.90
20911;DHT22;10615;42.702;23.314;2023-05-10T03:57:42;8.50;99.90
20911;DHT22;10615;42.702;23.314;2023-05-10T03:58:43;8.50;99.90
20911;DHT22;10615;42.702;23.314;2023-05-10T03:59:43;8.50;99.90
20911;DHT22;10615;42.702;23.314;2023-05-10T04:00:45;8.50;99.90
20911;DHT22;10615;42.702;23.314;2023-05-10T04:01:46;8.50;99.90
20911;DHT22;10615;42.702;23.314;2023-05-10T04:02:47;8.50;99.90
20911;DHT22;10615;42.702;23.314;2023-05-10T04:03:49;8.50;99.90
20911;DHT22;10615;42.702;23.314;2023-05-10T04:04:50;8.50;99.90
20911;DHT22;10615;42.702;23.314;2023-05-10T04:06:01;8.50;99.90
20911;DHT22;10615;42.702;23.314;2023-05-10T04:07:02;8.60;99.90
20911;DHT22;10615;42.702;23.314;2023-05-10T04:08:03;8.60;99.90
20911;DHT22;10615;42.702;23.314;2023-05-10T04:09:04;8.60;99.90
20911;DHT22;10615;42.702;23.314;2023-05-10T04:10:05;8.60;99.90
20911;DHT22;10615;42.702;23.314;2023-05-10T04:11:07;8.60;99.90
20911;DHT22;10615;42.702;23.314;2023-05-10T04:12:08;8.60;99.90
20911;DHT22;10615;42.702;23.314;2023-05-10T04:13:09;8.60;99.90
20911;DHT22;10615;42.702;23.314;2023-05-10T04:14:10;8.60;99.90
20911;DHT22;10615;42.702;23.314;2023-05-10T04:15:10;8.60;99.90
20911;DHT22;10615;42.702;23.314;2023-05-10T04:16:11;8.60;99.90
20911;DHT22;10615;42.702;23.314;2023-05-10T04:17:12;8.60;99.90
20911;DHT22;10615;42.702;23.314;2023-05-10T04:18:12;8.60;99.90
20911;DHT22;10615;42.702;23.314;2023-05-10T04:19:13;8.60;99.90
20911;DHT22;10615;42.702;23.314;2023-05-10T04:20:14;8.60;99.90
20911;DHT22;10615;42.702;23.314;2023-05-10T04:21:14;8.60;99.90
20911;DHT22;10615;42.702;23.314;2023-05-10T04:22:15;8.50;99.90
20911;DHT22;10615;42.702;23.314;2023-05-10T04:23:16;8.50;99.90
20911;DHT22;10615;42.702;23.314;2023-05-10T04:24:17;8.50;99.90
20911;DHT22;10615;42.702;23.314;2023-05-10T04:25:17;8.50;99.90
20911;DHT22;10615;42.702;23.314;2023-05-10T04:26:18;8.50;99.90
20911;DHT22;10615;42.702;23.314;2023-05-10T04:27:19;8.50;99.90
20911;DHT22;10615;42.702;23.314;2023-05-10T04:28:20;8.50;99.90
20911;DHT22;10615;42.702;23.314;2023-05-10T04:29:22;8.50;99.90
20911;DHT22;10615;42.702;23.314;2023-05-10T04:30:22;8.50;99.90
20911;DHT22;10615;42.702;23.314;2023-05-10T04:31:23;8.50;99.90
20911;DHT22;10615;42.702;23.314;2023-05-10T04:32:24;8.50;99.90
20911;DHT22;10615;42.702;23.314;2023-05-10T04:33:24;8.50;99.90
20911;DHT22;10615;42.702;23.314;2023-05-10T04:34:25;8.50;99.90
20911;DHT22;10615;42.702;23.314;2023-05-10T04:35:26;8.50;99.90
20911;DHT22;10615;42.702;23.314;2023-05-10T04:36:27;8.50;99.90
20911;DHT22;10615;42.702;23.314;2023-05-10T04:37:28;8.50;99.90
20911;DHT22;10615;42.702;23.314;2023-05-10T04:38:29;8.50;99.90
20911;DHT22;10615;42.702;23.314;2023-05-10T04:39:29;8.50;99.90
20911;DHT22;10615;42.702;23.314;2023-05-10T04:40:30;8.50;99.90
20911;DHT22;10615;42.702;23.314;2023-05-10T04:41:31;8.50;99.90
20911;DHT22;10615;42.702;23.314;2023-05-10T04:42:31;8.50;99.90
20911;DHT22;10615;42.702;23.314;2023-05-10T04:43:32;8.50;99.90
20911;DHT22;10615;42.702;23.314;2023-05-10T04:44:33;8.50;99.90
20911;DHT22;10615;42.702;23.314;2023-05-10T04:45:34;8.50;99.90
20911;DHT22;10615;42.702;23.314;2023-05-10T04:46:35;8.50;99.90
20911;DHT22;10615;42.702;23.314;2023-05-10T04:47:35;8.50;99.90
20911;DHT22;10615;42.702;23.314;2023-05-10T04:48:37;8.50;99.90
20911;DHT22;10615;42.702;23.314;2023-05-10T04:49:38;8.60;99.90
20911;DHT22;10615;42.702;23.314;2023-05-10T04:50:39;8.60;99.90
20911;DHT22;10615;42.702;23.314;2023-05-10T04:51:40;8.60;99.90
20911;DHT22;10615;42.702;23.314;2023-05-10T04:52:40;8.60;99.90
20911;DHT22;10615;42.702;23.314;2023-05-10T04:53:41;8.70;99.90
20911;DHT22;10615;42.702;23.314;2023-05-10T04:54:42;8.70;99.90
20911;DHT22;10615;42.702;23.314;2023-05-10T04:55:42;8.70;99.90
20911;DHT22;10615;42.702;23.314;2023-05-10T04:56:43;8.70;99.90
20911;DHT22;10615;42.702;23.314;2023-05-10T04:57:44;8.70;99.90
20911;DHT22;10615;42.702;23.314;2023-05-10T04:58:45;8.70;99.90
20911;DHT22;10615;42.702;23.314;2023-05-10T04:59:46;8.70;99.90
20911;DHT22;10615;42.702;23.314;2023-05-10T05:00:47;8.70;99.90
20911;DHT22;10615;42.702;23.314;2023-05-10T05:01:48;8.80;99.90
20911;DHT22;10615;42.702;23.314;2023-05-10T05:02:48;8.80;99.90
20911;DHT22;10615;42.702;23.314;2023-05-10T05:03:49;8.80;99.90
20911;DHT22;10615;42.702;23.314;2023-05-10T05:04:50;8.80;99.90
20911;DHT22;10615;42.702;23.314;2023-05-10T05:05:51;8.80;99.90
20911;DHT22;10615;42.702;23.314;2023-05-10T05:06:51;8.80;99.90
20911;DHT22;10615;42.702;23.314;2023-05-10T05:07:52;8.80;99.90
20911;DHT22;10615;42.702;23.314;2023-05-10T05:08:53;8.90;99.90
20911;DHT22;10615;42.702;23.314;2023-05-10T05:09:53;8.90;99.90
20911;DHT22;10615;42.702;23.314;2023-05-10T05:10:54;8.90;99.90
20911;DHT22;10615;42.702;23.314;2023-05-10T05:11:55;8.90;99.90
20911;DHT22;10615;42.702;23.314;2023-05-10T05:12:56;8.90;99.90
20911;DHT22;10615;42.702;23.314;2023-05-10T05:13:56;9.00;99.90
20911;DHT22;10615;42.702;23.314;2023-05-10T05:14:59;9.00;99.90
20911;DHT22;10615;42.702;23.314;2023-05-10T05:16:01;9.00;99.90
20911;DHT22;10615;42.702;23.314;2023-05-10T05:17:03;9.00;99.90
20911;DHT22;10615;42.702;23.314;2023-05-10T05:18:04;9.10;99.90
20911;DHT22;10615;42.702;23.314;2023-05-10T05:19:04;9.10;99.90
20911;DHT22;10615;42.702;23.314;2023-05-10T05:20:06;9.10;99.90
20911;DHT22;10615;42.702;23.314;2023-05-10T05:21:16;9.20;99.90
20911;DHT22;10615;42.702;23.314;2023-05-10T05:22:17;9.20;99.90
20911;DHT22;10615;42.702;23.314;2023-05-10T05:23:19;9.20;99.90
20911;DHT22;10615;42.702;23.314;2023-05-10T05:24:21;9.20;99.90
20911;DHT22;10615;42.702;23.314;2023-05-10T05:25:22;9.20;99.90
20911;DHT22;10615;42.702;23.314;2023-05-10T05:26:22;9.20;99.90
20911;DHT22;10615;42.702;23.314;2023-05-10T05:27:23;9.20;99.90
20911;DHT22;10615;42.702;23.314;2023-05-10T05:28:26;9.20;99.90
20911;DHT22;10615;42.702;23.314;2023-05-10T05:29:26;9.20;99.90
20911;DHT22;10615;42.702;23.314;2023-05-10T05:30:27;9.20;99.90
20911;DHT22;10615;42.702;23.314;2023-05-10T05:31:28;9.20;99.90
20911;DHT22;10615;42.702;23.314;2023-05-10T05:32:29;9.20;99.90
20911;DHT22;10615;42.702;23.314;2023-05-10T05:33:30;9.20;99.90
20911;DHT22;10615;42.702;23.314;2023-05-10T05:34:31;9.20;99.90
20911;DHT22;10615;42.702;23.314;2023-05-10T05:35:32;9.20;99.90
20911;DHT22;10615;42.702;23.314;2023-05-10T05:36:37;9.10;99.90
20911;DHT22;10615;42.702;23.314;2023-05-10T05:37:41;9.10;99.90
20911;DHT22;10615;42.702;23.314;2023-05-10T05:38:41;9.10;99.90
20911;DHT22;10615;42.702;23.314;2023-05-10T05:39:43;9.10;99.90
20911;DHT22;10615;42.702;23.314;2023-05-10T05:40:45;9.00;99.90
20911;DHT22;10615;42.702;23.314;2023-05-10T05:41:46;9.00;99.90
20911;DHT22;10615;42.702;23.314;2023-05-10T05:42:47;9.00;99.90
20911;DHT22;10615;42.702;23.314;2023-05-10T05:43:47;9.00;99.90
20911;DHT22;10615;42.702;23.314;2023-05-10T05:44:48;9.00;99.90
20911;DHT22;10615;42.702;23.314;2023-05-10T05:45:49;9.00;99.90
20911;DHT22;10615;42.702;23.314;2023-05-10T05:46:50;9.00;99.90
20911;DHT22;10615;42.702;23.314;2023-05-10T05:47:50;9.00;99.90
20911;DHT22;10615;42.702;23.314;2023-05-10T05:48:51;9.00;99.90
20911;DHT22;10615;42.702;23.314;2023-05-10T05:49:52;9.00;99.90
20911;DHT22;10615;42.702;23.314;2023-05-10T05:50:56;9.00;99.90
20911;DHT22;10615;42.702;23.314;2023-05-10T05:52:03;9.10;99.90
20911;DHT22;10615;42.702;23.314;2023-05-10T05:53:04;9.00;99.90
20911;DHT22;10615;42.702;23.314;2023-05-10T05:54:05;9.00;99.90
20911;DHT22;10615;42.702;23.314;2023-05-10T05:55:07;9.00;99.90
20911;DHT22;10615;42.702;23.314;2023-05-10T05:56:07;9.00;99.90
20911;DHT22;10615;42.702;23.314;2023-05-10T05:57:09;9.00;99.90
20911;DHT22;10615;42.702;23.314;2023-05-10T05:58:10;9.00;99.90
20911;DHT22;10615;42.702;23.314;2023-05-10T05:59:11;9.00;99.90
20911;DHT22;10615;42.702;23.314;2023-05-10T06:00:12;9.00;99.90
20911;DHT22;10615;42.702;23.314;2023-05-10T06:01:13;8.90;99.90
20911;DHT22;10615;42.702;23.314;2023-05-10T06:02:14;9.00;99.90
20911;DHT22;10615;42.702;23.314;2023-05-10T06:03:15;8.90;99.90
20911;DHT22;10615;42.702;23.314;2023-05-10T06:04:16;9.00;99.90
20911;DHT22;10615;42.702;23.314;2023-05-10T06:05:17;9.00;99.90
20911;DHT22;10615;42.702;23.314;2023-05-10T06:06:18;9.00;99.90
20911;DHT22;10615;42.702;23.314;2023-05-10T06:07:18;9.00;99.90
20911;DHT22;10615;42.702;23.314;2023-05-10T06:08:19;9.00;99.90
20911;DHT22;10615;42.702;23.314;2023-05-10T06:09:20;8.90;99.90
20911;DHT22;10615;42.702;23.314;2023-05-10T06:10:22;8.90;99.90
20911;DHT22;10615;42.702;23.314;2023-05-10T06:11:23;9.00;99.90
20911;DHT22;10615;42.702;23.314;2023-05-10T06:12:24;9.00;99.90
20911;DHT22;10615;42.702;23.314;2023-05-10T06:13:24;9.00;99.90
20911;DHT22;10615;42.702;23.314;2023-05-10T06:14:29;9.00;99.90
20911;DHT22;10615;42.702;23.314;2023-05-10T06:15:30;9.00;99.90
20911;DHT22;10615;42.702;23.314;2023-05-10T06:16:31;9.00;99.90
20911;DHT22;10615;42.702;23.314;2023-05-10T06:17:32;9.00;99.90
20911;DHT22;10615;42.702;23.314;2023-05-10T06:18:32;9.00;99.90
20911;DHT22;10615;42.702;23.314;2023-05-10T06:19:33;8.90;99.90
20911;DHT22;10615;42.702;23.314;2023-05-10T06:20:34;8.90;99.90
20911;DHT22;10615;42.702;23.314;2023-05-10T06:21:34;9.00;99.90
20911;DHT22;10615;42.702;23.314;2023-05-10T06:22:35;9.00;99.90
20911;DHT22;10615;42.702;23.314;2023-05-10T06:23:36;9.00;99.90
20911;DHT22;10615;42.702;23.314;2023-05-10T06:24:36;9.00;99.90
20911;DHT22;10615;42.702;23.314;2023-05-10T06:25:37;8.90;99.90
20911;DHT22;10615;42.702;23.314;2023-05-10T06:26:38;8.90;99.90
20911;DHT22;10615;42.702;23.314;2023-05-10T06:27:39;8.90;99.90
20911;DHT22;10615;42.702;23.314;2023-05-10T06:28:40;9.00;99.90
20911;DHT22;10615;42.702;23.314;2023-05-10T06:29:41;9.00;99.90
20911;DHT22;10615;42.702;23.314;2023-05-10T06:30:42;9.00;99.90
20911;DHT22;10615;42.702;23.314;2023-05-10T06:31:43;8.90;99.90
20911;DHT22;10615;42.702;23.314;2023-05-10T06:32:43;9.00;99.90
20911;DHT22;10615;42.702;23.314;2023-05-10T06:33:45;9.00;99.90
20911;DHT22;10615;42.702;23.314;2023-05-10T06:34:46;9.00;99.90
20911;DHT22;10615;42.702;23.314;2023-05-10T06:35:47;9.00;99.90
20911;DHT22;10615;42.702;23.314;2023-05-10T06:36:47;8.90;99.90
20911;DHT22;10615;42.702;23.314;2023-05-10T06:37:48;8.90;99.90
20911;DHT22;10615;42.702;23.314;2023-05-10T06:38:49;8.90;99.90
20911;DHT22;10615;42.702;23.314;2023-05-10T06:39:51;9.00;99.90
20911;DHT22;10615;42.702;23.314;2023-05-10T06:40:52;9.00;99.90
20911;DHT22;10615;42.702;23.314;2023-05-10T06:41:53;9.00;99.90
20911;DHT22;10615;42.702;23.314;2023-05-10T06:42:54;9.00;99.90
20911;DHT22;10615;42.702;23.314;2023-05-10T06:43:55;9.00;99.90
20911;DHT22;10615;42.702;23.314;2023-05-10T06:44:56;9.00;99.90
20911;DHT22;10615;42.702;23.314;2023-05-10T06:45:56;9.00;99.90
20911;DHT22;10615;42.702;23.314;2023-05-10T06:46:57;9.10;99.90
20911;DHT22;10615;42.702;23.314;2023-05-10T06:47:58;9.10;99.90